createdAt,value
2017-10-14T00:02:24.056Z,102169.53
2017-10-14T00:04:51.742Z,102168.83
2017-10-14T00:07:19.492Z,102167.02
2017-10-14T00:09:47.156Z,102173.23
2017-10-14T00:12:14.881Z,102172.87
2017-10-14T00:14:42.531Z,102168.39
2017-10-14T00:17:10.182Z,102167.86
2017-10-14T00:19:37.783Z,102166.64
2017-10-14T00:22:05.419Z,102167.73
2017-10-14T00:24:33.030Z,102163.77
2017-10-14T00:27:00.694Z,102171.70
2017-10-14T00:29:28.340Z,102169.92
2017-10-14T00:31:55.997Z,102175.48
2017-10-14T00:34:23.759Z,102165.73
2017-10-14T00:36:51.368Z,102167.20
2017-10-14T00:39:19.020Z,102169.28
2017-10-14T00:41:46.698Z,102165.72
2017-10-14T00:44:14.467Z,102163.88
2017-10-14T00:46:42.108Z,102162.97
2017-10-14T00:49:09.722Z,102168.28
2017-10-14T00:51:37.356Z,102163.98
2017-10-14T00:54:04.978Z,102159.22
2017-10-14T00:56:32.583Z,102166.00
2017-10-14T00:59:00.138Z,102168.69
2017-10-14T01:01:27.732Z,102164.98
2017-10-14T01:03:55.564Z,102160.76
2017-10-14T01:06:23.158Z,102155.78
2017-10-14T01:08:50.754Z,102159.69
2017-10-14T01:11:18.546Z,102154.91
2017-10-14T01:13:46.176Z,102147.88
2017-10-14T01:16:13.779Z,102152.96
2017-10-14T01:18:41.411Z,102152.44
2017-10-14T01:21:08.995Z,102150.02
2017-10-14T01:23:36.637Z,102144.34
2017-10-14T01:26:04.222Z,102145.57
2017-10-14T01:28:31.834Z,102144.03
2017-10-14T01:30:59.424Z,102144.48
2017-10-14T01:33:27.070Z,102139.45
2017-10-14T01:35:54.663Z,102147.75
2017-10-14T01:38:22.247Z,102147.59
2017-10-14T01:40:49.859Z,102145.02
2017-10-14T01:43:17.437Z,102143.83
2017-10-14T01:45:45.083Z,102141.77
2017-10-14T01:48:12.663Z,102142.38
2017-10-14T01:50:40.335Z,102144.44
2017-10-14T01:53:07.912Z,102141.22
2017-10-14T01:55:35.550Z,102144.36
2017-10-14T01:58:03.132Z,102145.23
2017-10-14T02:00:30.772Z,102141.95
2017-10-14T02:02:58.563Z,102144.19
2017-10-14T02:05:26.190Z,102147.80
2017-10-14T02:07:53.779Z,102141.94
2017-10-14T02:10:21.390Z,102139.31
2017-10-14T02:12:48.959Z,102133.05
2017-10-14T02:15:16.583Z,102133.59
2017-10-14T02:17:44.182Z,102137.33
2017-10-14T02:20:11.833Z,102133.41
2017-10-14T02:22:39.418Z,102130.63
2017-10-14T02:25:07.054Z,102137.77
2017-10-14T02:27:34.655Z,102138.52
2017-10-14T02:30:02.287Z,102135.56
2017-10-14T02:32:29.884Z,102137.46
2017-10-14T02:34:57.503Z,102140.47
2017-10-14T02:37:25.108Z,102143.17
2017-10-14T02:39:52.874Z,102137.44
2017-10-14T02:42:20.515Z,102143.50
2017-10-14T02:44:48.162Z,102138.50
2017-10-14T02:47:15.762Z,102143.94
2017-10-14T02:49:43.457Z,102141.78
2017-10-14T02:52:11.054Z,102138.67
2017-10-14T02:54:38.772Z,102141.41
2017-10-14T02:57:06.363Z,102135.66
2017-10-14T02:59:34.014Z,102140.70
2017-10-14T03:02:01.606Z,102144.84
2017-10-14T03:04:29.287Z,102144.36
2017-10-14T03:06:56.922Z,102147.41
2017-10-14T03:09:24.514Z,102146.09
2017-10-14T03:11:52.170Z,102147.34
2017-10-14T03:14:19.780Z,102141.15
2017-10-14T03:16:47.607Z,102140.80
2017-10-14T03:19:15.226Z,102146.09
2017-10-14T03:21:42.842Z,102137.94
2017-10-14T03:24:10.443Z,102131.77
2017-10-14T03:26:38.088Z,102129.38
2017-10-14T03:29:05.694Z,102127.23
2017-10-14T03:31:33.344Z,102128.58
2017-10-14T03:34:00.931Z,102132.52
2017-10-14T03:36:28.554Z,102132.66
2017-10-14T03:38:56.163Z,102135.45
2017-10-14T03:41:23.806Z,102134.94
2017-10-14T03:43:51.531Z,102139.31
2017-10-14T03:46:19.346Z,102138.97
2017-10-14T03:48:47.011Z,102136.53
2017-10-14T03:51:14.993Z,102137.20
2017-10-14T03:53:42.705Z,102144.23
2017-10-14T03:56:10.330Z,102142.94
2017-10-14T03:58:37.951Z,102144.58
2017-10-14T04:01:05.538Z,102144.68
2017-10-14T04:03:33.154Z,102142.78
2017-10-14T04:06:00.753Z,102144.08
2017-10-14T04:08:28.388Z,102147.19
2017-10-14T04:10:55.982Z,102149.15
2017-10-14T04:13:23.631Z,102146.55
2017-10-14T04:15:51.214Z,102142.82
2017-10-14T04:18:18.843Z,102143.05
2017-10-14T04:20:46.434Z,102143.01
2017-10-14T04:23:14.050Z,102146.86
2017-10-14T04:25:41.643Z,102151.91
2017-10-14T04:28:09.305Z,102153.83
2017-10-14T04:30:36.898Z,102142.95
2017-10-14T04:33:04.518Z,102147.86
2017-10-14T04:35:32.123Z,102144.94
2017-10-14T04:37:59.759Z,102154.73
2017-10-14T04:40:27.392Z,102156.12
2017-10-14T04:42:54.997Z,102157.11
2017-10-14T04:45:22.597Z,102153.61
2017-10-14T04:47:50.295Z,102153.39
2017-10-14T04:50:18.273Z,102153.93
2017-10-14T04:52:46.144Z,102160.73
2017-10-14T04:55:13.951Z,102157.50
2017-10-14T04:57:41.623Z,102157.05
2017-10-14T05:00:09.418Z,102153.99
2017-10-14T05:02:37.144Z,102153.99
2017-10-14T05:05:04.938Z,102157.91
2017-10-14T05:07:32.771Z,102156.88
2017-10-14T05:10:00.436Z,102157.50
2017-10-14T05:12:28.054Z,102156.08
2017-10-14T05:14:55.675Z,102153.29
2017-10-14T05:17:23.275Z,102153.61
2017-10-14T05:19:50.986Z,102154.12
2017-10-14T05:22:18.635Z,102147.51
2017-10-14T05:24:46.258Z,102149.50
2017-10-14T05:27:13.862Z,102154.98
2017-10-14T05:29:41.482Z,102157.05
2017-10-14T05:32:09.102Z,102158.05
2017-10-14T05:34:36.709Z,102159.52
2017-10-14T05:37:04.342Z,102158.17
2017-10-14T05:39:31.922Z,102158.59
2017-10-14T05:41:59.550Z,102153.22
2017-10-14T05:44:27.146Z,102164.67
2017-10-14T05:46:54.762Z,102156.52
2017-10-14T05:49:22.425Z,102154.07
2017-10-14T05:51:50.204Z,102159.53
2017-10-14T05:54:17.851Z,102166.70
2017-10-14T05:56:45.634Z,102172.80
2017-10-14T05:59:14.187Z,102166.22
2017-10-14T06:01:41.907Z,102176.17
2017-10-14T06:04:09.566Z,102182.11
2017-10-14T06:06:37.196Z,102184.42
2017-10-14T06:09:04.903Z,102188.59
2017-10-14T06:11:32.498Z,102191.88
2017-10-14T06:14:00.121Z,102193.80
2017-10-14T06:16:27.803Z,102200.30
2017-10-14T06:18:55.473Z,102198.85
2017-10-14T06:21:23.067Z,102199.69
2017-10-14T06:23:50.712Z,102197.12
2017-10-14T06:26:18.306Z,102194.42
2017-10-14T06:28:45.943Z,102197.61
2017-10-14T06:31:13.608Z,102202.30
2017-10-14T06:33:41.245Z,102200.91
2017-10-14T06:36:08.842Z,102201.45
2017-10-14T06:38:36.497Z,102198.31
2017-10-14T06:41:04.094Z,102199.60
2017-10-14T06:43:31.720Z,102207.70
2017-10-14T06:45:59.319Z,102215.14
2017-10-14T06:48:26.944Z,102214.83
2017-10-14T06:50:54.543Z,102213.16
2017-10-14T06:53:22.181Z,102219.81
2017-10-14T06:55:49.780Z,102216.84
2017-10-14T06:58:17.407Z,102219.80
2017-10-14T07:00:45.038Z,102224.17
2017-10-14T07:03:12.654Z,102229.57
2017-10-14T07:05:40.285Z,102233.48
2017-10-14T07:08:07.905Z,102228.60
2017-10-14T07:10:35.547Z,102233.33
2017-10-14T07:13:03.167Z,102240.20
2017-10-14T07:15:30.802Z,102238.59
2017-10-14T07:17:58.406Z,102244.53
2017-10-14T07:20:26.027Z,102248.33
2017-10-14T07:22:53.646Z,102250.16
2017-10-14T07:25:21.276Z,102244.80
2017-10-14T07:27:48.871Z,102249.88
2017-10-14T07:30:16.499Z,102256.66
2017-10-14T07:32:44.110Z,102255.12
2017-10-14T07:35:11.744Z,102250.37
2017-10-14T07:37:39.445Z,102252.36
2017-10-14T07:40:07.087Z,102255.77
2017-10-14T07:42:34.871Z,102255.02
2017-10-14T07:45:02.491Z,102258.98
2017-10-14T07:47:30.103Z,102258.49
2017-10-14T07:49:57.890Z,102265.14
2017-10-14T07:52:25.521Z,102262.21
2017-10-14T07:54:53.248Z,102269.67
2017-10-14T07:57:21.119Z,102266.16
2017-10-14T07:59:48.734Z,102263.83
2017-10-14T08:02:16.359Z,102266.95
2017-10-14T08:04:43.969Z,102260.73
2017-10-14T08:07:11.606Z,102257.70
2017-10-14T08:09:39.198Z,102256.59
2017-10-14T08:12:06.827Z,102260.30
2017-10-14T08:14:34.438Z,102257.26
2017-10-14T08:17:02.221Z,102266.09
2017-10-14T08:19:29.821Z,102262.48
2017-10-14T08:21:57.511Z,102266.02
2017-10-14T08:24:25.308Z,102269.73
2017-10-14T08:26:53.133Z,102268.52
2017-10-14T08:29:20.828Z,102262.36
2017-10-14T08:31:48.467Z,102268.88
2017-10-14T08:34:16.118Z,102266.79
2017-10-14T08:36:43.926Z,102260.05
2017-10-14T08:39:11.551Z,102258.75
2017-10-14T08:41:39.400Z,102264.76
2017-10-14T08:44:07.191Z,102266.58
2017-10-14T08:46:34.834Z,102261.77
2017-10-14T08:49:02.440Z,102264.52
2017-10-14T08:51:30.098Z,102266.84
2017-10-14T08:53:57.769Z,102264.00
2017-10-14T08:56:25.630Z,102264.98
2017-10-14T08:58:53.223Z,102261.50
2017-10-14T09:01:20.875Z,102262.74
2017-10-14T09:03:48.479Z,102271.15
2017-10-14T09:06:16.152Z,102263.44
2017-10-14T09:08:43.773Z,102263.18
2017-10-14T09:11:11.435Z,102268.48
2017-10-14T09:13:39.043Z,102261.84
2017-10-14T09:16:06.739Z,102268.23
2017-10-14T09:18:34.374Z,102271.91
2017-10-14T09:21:02.074Z,102272.45
2017-10-14T09:23:29.799Z,102272.23
2017-10-14T09:25:57.419Z,102267.63
2017-10-14T09:28:25.066Z,102266.83
2017-10-14T09:30:52.699Z,102271.82
2017-10-14T09:33:20.323Z,102270.61
2017-10-14T09:35:47.958Z,102266.78
2017-10-14T09:38:15.584Z,102273.00
2017-10-14T09:40:43.222Z,102267.83
2017-10-14T09:43:10.872Z,102271.19
2017-10-14T09:45:38.472Z,102271.55
2017-10-14T09:48:06.134Z,102265.95
2017-10-14T09:50:33.736Z,102271.10
2017-10-14T09:53:01.380Z,102265.08
2017-10-14T09:55:29.001Z,102262.83
2017-10-14T09:57:56.658Z,102261.42
2017-10-14T10:00:24.311Z,102256.34
2017-10-14T10:02:51.962Z,102262.53
2017-10-14T10:05:19.597Z,102260.06
2017-10-14T10:07:47.264Z,102258.89
2017-10-14T10:10:15.131Z,102257.61
2017-10-14T10:12:43.047Z,102249.02
2017-10-14T10:15:10.655Z,102248.16
2017-10-14T10:17:38.280Z,102247.23
2017-10-14T10:20:05.971Z,102248.30
2017-10-14T10:22:33.726Z,102250.02
2017-10-14T10:25:01.351Z,102251.20
2017-10-14T10:27:29.027Z,102245.18
2017-10-14T10:29:56.668Z,102241.70
2017-10-14T10:32:24.299Z,102239.17
2017-10-14T10:34:51.920Z,102230.81
2017-10-14T10:37:19.544Z,102232.77
2017-10-14T10:39:47.220Z,102234.63
2017-10-14T10:42:14.820Z,102235.00
2017-10-14T10:44:42.473Z,102227.54
2017-10-14T10:47:10.090Z,102221.55
2017-10-14T10:49:37.751Z,102215.14
2017-10-14T10:52:05.346Z,102215.53
2017-10-14T10:54:32.987Z,102213.21
2017-10-14T10:57:00.591Z,102212.94
2017-10-14T10:59:28.259Z,102207.09
2017-10-14T11:01:55.869Z,102205.67
2017-10-14T11:04:23.514Z,102212.42
2017-10-14T11:06:51.162Z,102209.89
2017-10-14T11:09:18.786Z,102206.61
2017-10-14T11:11:46.413Z,102205.98
2017-10-14T11:14:14.063Z,102205.33
2017-10-14T11:16:41.690Z,102206.42
2017-10-14T11:19:09.316Z,102201.02
2017-10-14T11:21:36.989Z,102194.83
2017-10-14T11:24:04.658Z,102190.36
2017-10-14T11:26:32.298Z,102186.47
2017-10-14T11:28:59.927Z,102188.09
2017-10-14T11:31:27.576Z,102176.28
2017-10-14T11:33:55.175Z,102172.09
2017-10-14T11:36:22.877Z,102165.11
2017-10-14T11:38:50.480Z,102160.67
2017-10-14T11:41:18.183Z,102159.36
2017-10-14T11:43:45.787Z,102155.77
2017-10-14T11:46:13.417Z,102159.93
2017-10-14T11:48:41.039Z,102150.55
2017-10-14T11:51:08.663Z,102147.11
2017-10-14T11:53:36.271Z,102145.37
2017-10-14T11:56:03.949Z,102147.14
2017-10-14T11:58:31.603Z,102139.05
2017-10-14T12:00:59.248Z,102135.66
2017-10-14T12:03:26.908Z,102134.23
2017-10-14T12:05:54.556Z,102136.56
2017-10-14T12:08:22.181Z,102128.48
2017-10-14T12:10:49.828Z,102131.08
2017-10-14T12:13:17.468Z,102130.69
2017-10-14T12:15:45.084Z,102124.34
2017-10-14T12:18:12.685Z,102128.52
2017-10-14T12:20:40.353Z,102130.86
2017-10-14T12:23:07.959Z,102132.50
2017-10-14T12:25:35.585Z,102130.16
2017-10-14T12:28:03.175Z,102122.81
2017-10-14T12:30:30.839Z,102118.14
2017-10-14T12:32:58.479Z,102117.13
2017-10-14T12:35:26.121Z,102118.68
2017-10-14T12:37:53.733Z,102115.63
2017-10-14T12:40:21.378Z,102121.46
2017-10-14T12:42:48.978Z,102121.55
2017-10-14T12:45:16.616Z,102117.13
2017-10-14T12:47:44.326Z,102121.06
2017-10-14T12:50:11.968Z,102119.04
2017-10-14T12:52:39.559Z,102120.61
2017-10-14T12:55:07.175Z,102113.81
2017-10-14T12:57:34.801Z,102115.76
2017-10-14T13:00:02.395Z,102119.75
2017-10-14T13:02:30.087Z,102118.14
2017-10-14T13:04:57.683Z,102125.55
2017-10-14T13:07:25.315Z,102126.60
2017-10-14T13:09:52.903Z,102121.69
2017-10-14T13:12:20.531Z,102120.39
2017-10-14T13:14:48.145Z,102117.50
2017-10-14T13:17:15.776Z,102118.14
2017-10-14T13:19:43.397Z,102112.46
2017-10-14T13:22:11.022Z,102110.27
2017-10-14T13:24:38.635Z,102103.89
2017-10-14T13:27:06.311Z,102099.55
2017-10-14T13:29:33.907Z,102093.38
2017-10-14T13:32:01.518Z,102092.77
2017-10-14T13:34:29.142Z,102091.05
2017-10-14T13:36:56.796Z,102090.87
2017-10-14T13:39:24.426Z,102088.63
2017-10-14T13:41:52.040Z,102093.16
2017-10-14T13:44:19.680Z,102094.69
2017-10-14T13:46:47.271Z,102094.59
2017-10-14T13:49:14.913Z,102094.45
2017-10-14T13:51:42.530Z,102093.92
2017-10-14T13:54:10.169Z,102091.80
2017-10-14T13:56:37.802Z,102087.11
2017-10-14T13:59:05.442Z,102089.91
2017-10-14T14:01:33.035Z,102082.81
2017-10-14T14:04:00.840Z,102083.23
2017-10-14T14:06:28.538Z,102084.52
2017-10-14T14:08:56.164Z,102074.98
2017-10-14T14:11:23.846Z,102078.95
2017-10-14T14:13:51.656Z,102067.50
2017-10-14T14:16:19.275Z,102070.03
2017-10-14T14:18:46.894Z,102068.59
2017-10-14T14:21:14.543Z,102062.94
2017-10-14T14:23:42.153Z,102061.05
2017-10-14T14:26:09.754Z,102059.22
2017-10-14T14:28:37.381Z,102057.02
2017-10-14T14:31:05.007Z,102054.61
2017-10-14T14:33:32.640Z,102055.78
2017-10-14T14:36:00.243Z,102054.39
2017-10-14T14:38:27.978Z,102047.11
2017-10-14T14:40:55.595Z,102051.47
2017-10-14T14:43:23.211Z,102053.47
2017-10-14T14:45:50.819Z,102054.53
2017-10-14T14:48:18.463Z,102057.52
2017-10-14T14:50:46.093Z,102053.83
2017-10-14T14:53:13.815Z,102054.70
2017-10-14T14:55:41.435Z,102050.33
2017-10-14T14:58:09.102Z,102049.61
2017-10-14T15:00:36.727Z,102049.84
2017-10-14T15:03:04.406Z,102055.91
2017-10-14T15:05:32.016Z,102045.84
2017-10-14T15:07:59.652Z,102053.56
2017-10-14T15:10:27.254Z,102059.88
2017-10-14T15:12:54.914Z,102057.94
2017-10-14T15:15:22.559Z,102054.19
2017-10-14T15:17:50.145Z,102056.16
2017-10-14T15:20:17.931Z,102054.45
2017-10-14T15:22:45.536Z,102066.94
2017-10-14T15:25:13.174Z,102062.16
2017-10-14T15:27:40.775Z,102061.15
2017-10-14T15:30:08.448Z,102058.70
2017-10-14T15:32:36.068Z,102053.42
2017-10-14T15:35:03.691Z,102049.19
2017-10-14T15:37:31.298Z,102053.92
2017-10-14T15:39:58.939Z,102050.25
2017-10-14T15:42:26.582Z,102047.84
2017-10-14T15:44:54.244Z,102052.78
2017-10-14T15:47:21.857Z,102052.05
2017-10-14T15:49:49.478Z,102050.06
2017-10-14T15:52:17.079Z,102049.28
2017-10-14T15:54:44.712Z,102041.66
2017-10-14T15:57:12.319Z,102050.13
2017-10-14T15:59:39.951Z,102058.92
2017-10-14T16:02:07.550Z,102058.42
2017-10-14T16:04:35.196Z,102055.11
2017-10-14T16:07:02.823Z,102055.59
2017-10-14T16:09:30.433Z,102049.12
2017-10-14T16:11:58.077Z,102050.18
2017-10-14T16:14:25.675Z,102054.95
2017-10-14T16:16:53.295Z,102059.89
2017-10-14T16:19:20.946Z,102060.59
2017-10-14T16:21:48.545Z,102069.53
2017-10-14T16:24:16.237Z,102071.41
2017-10-14T16:26:43.839Z,102063.56
2017-10-14T16:29:11.491Z,102065.20
2017-10-14T16:31:39.154Z,102067.16
2017-10-14T16:34:06.742Z,102069.00
2017-10-14T16:36:34.380Z,102078.78
2017-10-14T16:39:01.989Z,102080.29
2017-10-14T16:41:29.631Z,102082.81
2017-10-14T16:43:57.238Z,102089.23
2017-10-14T16:46:24.867Z,102089.79
2017-10-14T16:48:52.468Z,102091.17
2017-10-14T16:51:20.124Z,102091.03
2017-10-14T16:53:47.734Z,102097.55
2017-10-14T16:56:15.361Z,102092.48
2017-10-14T16:58:42.963Z,102100.63
2017-10-14T17:01:10.602Z,102095.81
2017-10-14T17:03:38.254Z,102098.06
2017-10-14T17:06:05.892Z,102101.12
2017-10-14T17:08:33.502Z,102098.36
2017-10-14T17:11:02.882Z,102101.09
2017-10-14T17:13:30.518Z,102104.32
2017-10-14T17:15:58.169Z,102107.28
2017-10-14T17:18:25.766Z,102111.48
2017-10-14T17:20:53.399Z,102112.39
2017-10-14T17:23:20.995Z,102110.80
2017-10-14T17:25:48.735Z,102120.51
2017-10-14T17:28:16.349Z,102117.63
2017-10-14T17:30:43.972Z,102117.44
2017-10-14T17:33:11.582Z,102115.77
2017-10-14T17:35:39.234Z,102121.81
2017-10-14T17:38:06.862Z,102111.22
2017-10-14T17:40:34.504Z,102118.88
2017-10-14T17:43:02.152Z,102119.05
2017-10-14T17:45:29.754Z,102117.49
2017-10-14T17:47:57.401Z,102120.91
2017-10-14T17:50:25.004Z,102117.08
2017-10-14T17:52:52.632Z,102112.49
2017-10-14T17:55:20.235Z,102118.55
2017-10-14T17:57:47.871Z,102111.87
2017-10-14T18:00:15.488Z,102120.17
2017-10-14T18:02:43.157Z,102121.30
2017-10-14T18:05:10.767Z,102112.86
2017-10-14T18:07:38.395Z,102109.23
2017-10-14T18:10:06.013Z,102107.89
2017-10-14T18:12:33.634Z,102103.28
2017-10-14T18:15:01.343Z,102106.34
2017-10-14T18:17:28.971Z,102100.50
2017-10-14T18:19:56.574Z,102102.55
2017-10-14T18:22:24.206Z,102107.13
2017-10-14T18:24:51.799Z,102099.88
2017-10-14T18:27:19.455Z,102103.73
2017-10-14T18:29:47.159Z,102105.53
2017-10-14T18:32:14.772Z,102112.94
2017-10-14T18:34:42.395Z,102103.89
2017-10-14T18:37:09.989Z,102103.15
2017-10-14T18:39:37.622Z,102111.80
2017-10-14T18:42:05.220Z,102113.92
2017-10-14T18:44:32.922Z,102123.78
2017-10-14T18:47:00.590Z,102123.57
2017-10-14T18:49:28.226Z,102125.88
2017-10-14T18:51:55.906Z,102121.80
2017-10-14T18:54:23.542Z,102125.28
2017-10-14T18:56:51.151Z,102124.58
2017-10-14T18:59:19.464Z,102115.55
2017-10-14T19:01:47.091Z,102114.45
2017-10-14T19:04:14.674Z,102128.66
2017-10-14T19:06:42.314Z,102122.21
2017-10-14T19:09:09.919Z,102120.28
2017-10-14T19:11:37.566Z,102124.82
2017-10-14T19:14:05.211Z,102126.07
2017-10-14T19:16:32.874Z,102135.30
2017-10-14T19:19:00.484Z,102137.48
2017-10-14T19:21:28.140Z,102134.70
2017-10-14T19:23:55.755Z,102139.22
2017-10-14T19:26:23.411Z,102134.09
2017-10-14T19:28:51.000Z,102130.70
2017-10-14T19:31:18.638Z,102140.80
2017-10-14T19:33:46.231Z,102127.47
2017-10-14T19:36:13.864Z,102126.36
2017-10-14T19:38:41.454Z,102126.65
2017-10-14T19:41:09.137Z,102128.02
2017-10-14T19:43:36.733Z,102128.88
2017-10-14T19:46:04.371Z,102130.70
2017-10-14T19:48:31.979Z,102129.25
2017-10-14T19:50:59.609Z,102128.20
2017-10-14T19:53:27.207Z,102124.34
2017-10-14T19:55:54.840Z,102124.64
2017-10-14T19:58:22.431Z,102129.28
2017-10-14T20:00:50.027Z,102131.30
2017-10-14T20:03:17.709Z,102122.88
2017-10-14T20:05:45.346Z,102119.89
2017-10-14T20:08:12.935Z,102117.85
2017-10-14T20:10:40.596Z,102119.73
2017-10-14T20:13:08.208Z,102119.59
2017-10-14T20:15:35.809Z,102120.41
2017-10-14T20:18:03.436Z,102116.79
2017-10-14T20:20:31.065Z,102119.64
2017-10-14T20:22:58.684Z,102123.15
2017-10-14T20:25:26.294Z,102120.08
2017-10-14T20:27:53.925Z,102117.23
2017-10-14T20:30:21.567Z,102123.36
2017-10-14T20:32:49.178Z,102132.16
2017-10-14T20:35:16.812Z,102138.15
2017-10-14T20:37:44.410Z,102136.09
2017-10-14T20:40:12.051Z,102134.58
2017-10-14T20:42:39.652Z,102129.71
2017-10-14T20:45:07.255Z,102140.02
2017-10-14T20:47:34.880Z,102141.23
2017-10-14T20:50:02.536Z,102139.72
2017-10-14T20:52:30.131Z,102136.73
2017-10-14T20:54:57.747Z,102138.64
2017-10-14T20:57:25.370Z,102142.06
2017-10-14T20:59:52.979Z,102134.45
2017-10-14T21:02:20.610Z,102137.72
2017-10-14T21:04:48.214Z,102138.95
2017-10-14T21:07:15.898Z,102136.80
2017-10-14T21:09:43.459Z,102136.42
2017-10-14T21:12:11.102Z,102137.78
2017-10-14T21:14:38.715Z,102142.28
2017-10-14T21:17:06.368Z,102136.17
2017-10-14T21:19:33.968Z,102139.30
2017-10-14T21:22:01.615Z,102139.96
2017-10-14T21:24:29.227Z,102135.66
2017-10-14T21:26:56.889Z,102141.08
2017-10-14T21:29:24.488Z,102141.60
2017-10-14T21:31:52.259Z,102147.86
2017-10-14T21:34:20.047Z,102140.95
2017-10-14T21:36:47.653Z,102145.58
2017-10-14T21:39:15.294Z,102139.87
2017-10-14T21:41:42.938Z,102139.48
2017-10-14T21:44:10.583Z,102129.88
2017-10-14T21:46:38.188Z,102134.81
2017-10-14T21:49:05.816Z,102137.34
2017-10-14T21:51:33.439Z,102129.36
2017-10-14T21:54:01.063Z,102125.80
2017-10-14T21:56:28.675Z,102118.13
2017-10-14T21:58:56.293Z,102118.48
2017-10-14T22:01:23.900Z,102118.98
2017-10-14T22:03:51.543Z,102115.51
2017-10-14T22:06:19.146Z,102121.30
2017-10-14T22:08:46.879Z,102114.41
2017-10-14T22:11:14.489Z,102109.97
2017-10-14T22:13:42.092Z,102106.32
2017-10-14T22:16:09.738Z,102103.22
2017-10-14T22:18:37.334Z,102101.17
2017-10-14T22:21:04.977Z,102103.88
2017-10-14T22:23:32.578Z,102106.60
2017-10-14T22:26:00.238Z,102097.92
2017-10-14T22:28:27.840Z,102098.19
2017-10-14T22:30:55.592Z,102095.22
2017-10-14T22:33:23.199Z,102095.77
2017-10-14T22:35:50.847Z,102092.90
2017-10-14T22:38:18.475Z,102092.47
2017-10-14T22:40:46.110Z,102082.79
2017-10-14T22:43:13.722Z,102076.44
2017-10-14T22:45:41.328Z,102075.95
2017-10-14T22:48:08.981Z,102077.34
2017-10-14T22:50:36.597Z,102073.95
2017-10-14T22:53:04.230Z,102064.22
2017-10-14T22:55:31.893Z,102059.45
2017-10-14T22:57:59.523Z,102056.74
2017-10-14T23:00:27.144Z,102050.12
2017-10-14T23:02:54.742Z,102047.83
2017-10-14T23:05:22.429Z,102055.67
2017-10-14T23:07:50.035Z,102056.36
2017-10-14T23:10:17.658Z,102057.16
2017-10-14T23:12:45.254Z,102057.58
2017-10-14T23:15:12.930Z,102054.46
2017-10-14T23:17:40.527Z,102056.09
2017-10-14T23:20:08.175Z,102056.75
2017-10-14T23:22:35.927Z,102052.69
2017-10-14T23:25:03.607Z,102055.80
2017-10-14T23:27:31.206Z,102055.33
2017-10-14T23:29:58.802Z,102051.06
2017-10-14T23:32:26.414Z,102046.72
2017-10-14T23:34:54.018Z,102043.86
2017-10-14T23:37:21.647Z,102042.35
2017-10-14T23:39:49.262Z,102043.97
2017-10-14T23:42:16.890Z,102045.63
2017-10-14T23:44:44.497Z,102040.08
2017-10-14T23:47:12.131Z,102040.34
2017-10-14T23:49:39.727Z,102038.02
2017-10-14T23:52:07.354Z,102042.98
2017-10-14T23:54:34.985Z,102030.09
2017-10-14T23:57:02.719Z,102034.13
2017-10-14T23:59:30.326Z,102026.53
